首页
METAR-TAF:

METAR-TAF

机场 :

阿比让, 科特迪瓦

阿必尚國際機場

纬度: 05-15N, 经度: 003-56W, 海拔: 7米

当前天气观测

该预报发布于25分钟前的06:30 UTC
风速9节,风向西南
温度 29°C
湿度 79%
气压 1012 hPa
能见度10公里或以上
散云层高于1200英尺

METAR: DIAP 250630Z 22009KT 9999 SCT012 29/25 Q1012 NOSIG

时间: 06:55 (06:55 UTC)

预报

该预报发布于1小时和55分钟前的05:00 UTC
预报有效从25日的 06点(UTC)到 26日的 12点(UTC)
风速9节,风向南转西南
能見度: 8000
少量云层高于1200英尺
几率 30% :
短暂存在
从 25日的 16点(UTC)到 25日的 22点(UTC)
多云层高于1200英尺
少量云层高于2000英尺, 积雨云.
雷暴
几率 30% :
短暂存在
从 26日的 06点(UTC)到 26日的 12点(UTC)
多云层高于1200英尺

TAF: DIAP 250500Z 2506/2612 21009KT 8000 FEW012 PROB30 TEMPO 2516/2522 TS BKN012 FEW020CB PROB30 TEMPO 2606/2612 BKN012

超过4000个机场的气象观测和天气预报(METAR&TAF报告)。

可查询的气象台以黄色和红色小点在地图上表示。

将鼠标移到小点上方,可查看气象台名称。

然后点击查看天气观测和预报。

如需切换地图:点击带黑十字的绿色按钮放大地图;点击带横线的绿色按钮缩小地图;或者点击绿色箭头查看邻近地区的地图。


METAR-TAF: